Bassett, Wisconsin
Current Conditions -  °F | °C
As of 11:35 PM on Sunday 19 Oct 2014 (Local Time) from KBUU Reporting Station
Clear Clear  
Wind Chill: 46°   Ceiling: Unl
Heat Index: 50°   Visibility: 10mi
Dew Point: 42°   Wind: 10mph
Humidity: 74%   Direction: 220°SW
Pressure: 29.85"   Gusts: 17mph
Location:  42.54°N, 88.23°W
Report Text: KBUU 200435Z AUTO 22009G15KT 10SM CLR 10/06 A2985 RMK AO2 T00990055
Loading
Personal Weather Stations






























Interactive Weather Map
Tropical Storm Tracking
New forecast layout! Learn more

10-Day Weather Forecast

Advertisements
Track Severe Weather on mobile